Warrenton, Indiana
Current Conditions -  °F | °C
As of 4:01 AM on Tuesday 27 Jan 2015 (Local Time) from KEVV Reporting Station
Haze Haze  
Wind Chill: 33°   Ceiling: 300
Heat Index: 33°   Visibility: 4mi
Dew Point: 29°   Wind: 0mph
Humidity: 85%   Direction: NA
Pressure: 29.93"   Gusts: NA
Location:  38.1827°N, 87.5887°W
Report Text: KEVV 271001Z AUTO 00000KT 4SM BR BKN003 OVC021 01/M02 A2993 RMK AO2 T00061017
Loading
Personal Weather Stations






























Interactive Weather Map New forecast layout! Learn more

10-Day Weather Forecast

Advertisements
Track Severe Weather on mobile